Time;durP1;ratioP1;P1;durP2;ratioP2;P2;SDS_P1;SDS_P2;PMS_P1;PMS_P2;Temp;Humidity;BMP_temperature;BMP_pressure;BME280_temperature;BME280_humidity;BME280_pressure;Samples;Min_cycle;Max_cycle;Signal;HPM_P1;HPM_P2
2021/10/04 00:02:22;;;;;;;;;1.00;1.00;;;;;15.58;63.68;101302.63;5039755;28;45264;-80
2021/10/04 00:04:47;;;;;;;;;0.75;0.75;;;;;15.45;63.81;101292.59;5039934;28;45389;-80
2021/10/04 00:07:13;;;;;;;;;1.25;1.00;;;;;15.40;64.69;101297.22;5039505;28;45458;-80
2021/10/04 00:09:39;;;;;;;;;1.25;1.00;;;;;15.40;64.12;101308.69;5039533;28;46541;-80
2021/10/04 00:12:06;;;;;;;;;1.00;1.00;;;;;15.33;64.28;101306.38;5039529;28;45329;-80
2021/10/04 00:14:32;;;;;;;;;1.00;1.00;;;;;15.29;64.34;101303.88;5038530;28;45303;-79
2021/10/04 00:16:58;;;;;;;;;1.00;1.00;;;;;15.29;64.24;101311.81;5039166;28;45422;-79
2021/10/04 00:19:24;;;;;;;;;1.25;0.25;;;;;15.25;64.50;101309.38;5039607;28;45265;-79
2021/10/04 00:21:49;;;;;;;;;1.00;1.00;;;;;15.17;64.88;101305.25;5035792;28;45285;-80
2021/10/04 00:24:15;;;;;;;;;1.00;1.00;;;;;15.12;64.65;101301.09;5039481;28;45251;-80
2021/10/04 00:26:41;;;;;;;;;4.00;1.50;;;;;15.04;64.80;101296.97;5039122;28;45446;-80
2021/10/04 00:29:07;;;;;;;;;0.50;0.50;;;;;14.98;64.74;101294.63;5039284;28;46454;-80
2021/10/04 00:31:32;;;;;;;;;1.00;1.00;;;;;14.98;65.32;101294.63;5039104;28;45525;-86
2021/10/04 00:33:58;;;;;;;;;1.00;1.00;;;;;15.04;65.65;101306.69;5039464;28;45935;-88
2021/10/04 00:36:23;;;;;;;;;3.25;1.25;;;;;15.12;65.32;101303.72;5039153;28;45431;-84
2021/10/04 00:38:49;;;;;;;;;0.00;0.00;;;;;15.08;65.18;101308.31;5039290;28;45584;-88
2021/10/04 00:41:14;;;;;;;;;1.00;1.00;;;;;15.03;65.02;101302.34;5039020;28;45265;-88
2021/10/04 00:43:40;;;;;;;;;1.00;1.00;;;;;15.02;65.16;101317.38;5017539;28;45411;-86
2021/10/04 00:46:05;;;;;;;;;3.00;1.00;;;;;14.98;65.40;101313.13;5036451;28;45323;-86
2021/10/04 00:48:31;;;;;;;;;1.50;1.50;;;;;15.01;65.44;101318.31;5039060;28;46457;-85
2021/10/04 00:50:56;;;;;;;;;0.75;0.75;;;;;15.04;65.89;101307.56;5039229;28;45235;-84
2021/10/04 00:53:22;;;;;;;;;1.00;1.00;;;;;15.16;65.80;101314.13;5039299;28;45688;-87
2021/10/04 00:55:47;;;;;;;;;1.50;1.25;;;;;15.30;65.70;101324.13;5019949;28;46010;-87
2021/10/04 00:58:13;;;;;;;;;1.00;0.00;;;;;15.41;65.48;101317.47;5022209;28;48027;-87
2021/10/04 01:00:38;;;;;;;;;0.25;0.25;;;;;15.54;65.07;101320.44;5042671;28;45177;-86
2021/10/04 01:03:04;;;;;;;;;2.00;0.00;;;;;15.58;64.88;101322.03;5042683;28;45188;-85
2021/10/04 01:05:30;;;;;;;;;2.50;1.50;;;;;15.59;64.78;101307.00;5042538;28;45174;-85
2021/10/04 01:07:55;;;;;;;;;2.25;2.25;;;;;15.64;64.66;101311.16;5023847;28;47216;-85
2021/10/04 01:10:21;;;;;;;;;2.25;1.00;;;;;15.70;64.18;101325.06;5042385;28;45390;-84
2021/10/04 01:12:49;;;;;;;;;0.50;0.50;;;;;15.73;64.53;101317.81;5042392;28;45446;-88
2021/10/04 01:15:17;;;;;;;;;1.00;1.00;;;;;15.72;63.98;101309.94;5041588;28;45522;-82
2021/10/04 01:17:43;;;;;;;;;1.00;1.00;;;;;15.80;63.93;101322.84;5040644;28;46607;-82
2021/10/04 01:20:17;;;;;;;;;0.00;0.00;;;;;15.77;63.73;101304.44;5041821;28;45283;-82
2021/10/04 01:22:43;;;;;;;;;1.75;1.50;;;;;15.81;63.76;101313.97;5041863;28;45241;-82
2021/10/04 01:25:11;;;;;;;;;1.00;1.00;;;;;15.86;63.35;101319.91;5041899;28;45256;-82
2021/10/04 01:27:37;;;;;;;;;1.00;1.00;;;;;15.82;63.63;101311.25;5042103;28;45407;-81
2021/10/04 01:30:04;;;;;;;;;2.25;2.00;;;;;15.82;63.25;101307.75;5041886;28;45352;-85
2021/10/04 01:32:30;;;;;;;;;1.00;1.00;;;;;15.79;63.11;101318.47;5042374;28;45412;-81
2021/10/04 01:34:57;;;;;;;;;0.75;0.75;;;;;15.77;63.24;101315.03;5042036;28;45466;-80
2021/10/04 01:37:23;;;;;;;;;0.25;0.25;;;;;15.70;63.34;101307.38;5042097;28;46248;-80
2021/10/04 01:39:49;;;;;;;;;0.50;0.50;;;;;15.68;63.08;101311.03;5041995;28;45552;-80
2021/10/04 01:42:14;;;;;;;;;0.75;0.75;;;;;15.64;63.42;101305.00;5041708;28;45303;-80
2021/10/04 01:44:40;;;;;;;;;2.00;0.00;;;;;15.61;63.05;101308.66;5041379;28;45430;-80
2021/10/04 01:47:05;;;;;;;;;0.00;0.00;;;;;15.55;63.51;101294.81;5040582;28;45958;-80
2021/10/04 01:49:30;;;;;;;;;1.50;1.50;;;;;15.51;62.73;101304.69;5041801;28;45275;-80
2021/10/04 01:51:56;;;;;;;;;1.00;1.00;;;;;15.46;63.44;101298.75;5042083;28;45437;-87
2021/10/04 01:54:21;;;;;;;;;0.75;0.75;;;;;15.45;63.71;101299.69;5022790;28;47039;-82
2021/10/04 01:56:47;;;;;;;;;0.50;0.50;;;;;15.48;63.99;101304.84;5040628;28;45435;-83
2021/10/04 01:59:12;;;;;;;;;0.75;0.75;;;;;15.52;64.11;101301.13;5041492;28;45425;-82
2021/10/04 02:01:37;;;;;;;;;0.00;0.00;;;;;15.61;63.87;101300.69;5041920;28;45490;-80
2021/10/04 02:04:03;;;;;;;;;1.00;0.00;;;;;15.63;63.94;101290.06;5041385;28;45303;-80
2021/10/04 02:06:28;;;;;;;;;1.00;1.00;;;;;15.70;63.54;101309.16;5040711;28;45525;-81
2021/10/04 02:08:54;;;;;;;;;0.00;0.00;;;;;15.73;63.40;101299.28;5041404;28;45395;-81
2021/10/04 02:11:19;;;;;;;;;1.50;1.50;;;;;15.77;62.96;101307.09;5040543;28;45416;-81
2021/10/04 02:13:44;;;;;;;;;1.75;1.75;;;;;15.79;62.93;101314.03;5040596;28;45356;-81
2021/10/04 02:16:10;;;;;;;;;0.00;0.00;;;;;15.84;63.02;101314.69;5041457;28;46371;-82
2021/10/04 02:18:35;;;;;;;;;1.00;1.00;;;;;15.87;62.67;101311.03;5041369;28;45340;-84
2021/10/04 02:21:01;;;;;;;;;1.00;1.00;;;;;15.90;62.33;101310.88;5041743;28;45355;-81
2021/10/04 02:23:26;;;;;;;;;0.75;0.00;;;;;15.89;62.39;101303.88;5041063;28;45212;-81
2021/10/04 02:25:52;;;;;;;;;1.25;1.00;;;;;15.92;62.22;101317.00;5041134;28;45271;-83
2021/10/04 02:28:19;;;;;;;;;0.00;0.00;;;;;15.90;62.52;101313.53;5041067;28;45249;-83
2021/10/04 02:30:46;;;;;;;;;1.00;1.00;;;;;15.89;61.77;101313.59;5041583;28;45355;-82
2021/10/04 02:33:11;;;;;;;;;0.75;0.75;;;;;15.84;61.87;101316.47;5040808;28;45408;-83
2021/10/04 02:35:38;;;;;;;;;1.00;1.00;;;;;15.73;61.64;101304.56;5040538;28;45893;-83
2021/10/04 02:38:05;;;;;;;;;3.00;1.00;;;;;15.66;61.95;101308.44;5034377;28;45279;-83
2021/10/04 02:40:31;;;;;;;;;0.00;0.00;;;;;15.53;61.90;101301.03;5041117;28;45500;-83
2021/10/04 02:42:56;;;;;;;;;0.75;0.75;;;;;15.41;62.02;101289.22;5041094;28;45352;-82
2021/10/04 02:45:24;;;;;;;;;2.00;0.00;;;;;15.33;62.29;101288.72;5040672;28;45360;-81
2021/10/04 02:47:52;;;;;;;;;1.25;0.50;;;;;15.23;62.38;101285.59;5041129;28;45578;-81
2021/10/04 02:50:21;;;;;;;;;0.75;0.75;;;;;15.17;62.25;101296.44;5040941;28;45312;-81
2021/10/04 02:52:47;;;;;;;;;0.25;0.25;;;;;15.13;62.81;101297.53;5040362;28;45268;-82
2021/10/04 02:55:13;;;;;;;;;0.75;0.75;;;;;15.12;63.06;101303.72;5040513;28;45344;-82
2021/10/04 02:57:38;;;;;;;;;0.00;0.00;;;;;15.07;62.89;101306.56;5039637;28;45216;-82
2021/10/04 03:00:05;;;;;;;;;1.00;1.00;;;;;15.08;63.72;101303.03;5041108;28;45440;-82
2021/10/04 03:02:31;;;;;;;;;2.00;1.00;;;;;15.13;63.24;101306.34;5022744;28;45588;-82
2021/10/04 03:04:57;;;;;;;;;1.00;1.00;;;;;15.14;62.95;101302.75;5040597;28;46154;-82
2021/10/04 03:07:22;;;;;;;;;2.25;1.00;;;;;15.17;63.40;101305.25;5040718;28;45304;-83
2021/10/04 03:09:47;;;;;;;;;1.00;1.00;;;;;15.23;63.56;101306.78;5040627;28;45790;-83
2021/10/04 03:12:13;;;;;;;;;1.00;1.00;;;;;15.33;62.94;101314.31;5040563;28;45469;-82
2021/10/04 03:14:38;;;;;;;;;1.00;1.00;;;;;15.33;62.83;101309.91;5039871;28;45225;-82
2021/10/04 03:17:04;;;;;;;;;1.00;1.00;;;;;15.25;62.94;101310.22;5040625;28;45515;-82
2021/10/04 03:19:29;;;;;;;;;2.00;1.00;;;;;15.26;62.74;101321.69;5040146;28;45299;-82
2021/10/04 03:21:55;;;;;;;;;1.00;1.00;;;;;15.12;62.20;101309.03;5039743;28;45443;-80
2021/10/04 03:24:21;;;;;;;;;0.00;0.00;;;;;15.04;63.31;101312.88;5040243;28;45455;-80
2021/10/04 03:26:46;;;;;;;;;2.00;1.50;;;;;15.00;63.40;101307.78;5039295;28;45201;-80
2021/10/04 03:29:12;;;;;;;;;1.25;1.25;;;;;15.03;63.18;101311.16;5040086;28;45371;-79
2021/10/04 03:31:38;;;;;;;;;1.00;1.00;;;;;15.03;63.13;101302.34;5040110;28;45524;-79
2021/10/04 03:34:04;;;;;;;;;2.00;1.25;;;;;15.01;62.73;101306.84;5040255;28;46588;-79
2021/10/04 03:36:30;;;;;;;;;4.25;1.50;;;;;14.91;62.61;101298.44;5038891;28;45518;-78
2021/10/04 03:38:56;;;;;;;;;1.00;1.00;;;;;14.84;62.84;101301.31;5040147;28;45374;-80
2021/10/04 03:41:23;;;;;;;;;1.00;1.00;;;;;14.76;62.68;101315.78;5039862;28;45289;-81
2021/10/04 03:43:49;;;;;;;;;1.75;1.00;;;;;14.65;63.20;101306.50;5039420;28;45584;-82
2021/10/04 03:46:14;;;;;;;;;1.50;1.50;;;;;14.62;63.37;101312.78;5021917;28;45446;-82
2021/10/04 03:48:39;;;;;;;;;2.75;2.00;;;;;14.55;63.42;101306.03;5040107;28;45624;-81
2021/10/04 03:51:05;;;;;;;;;0.75;0.75;;;;;14.56;63.86;101307.75;5039924;28;45297;-81
2021/10/04 03:53:30;;;;;;;;;3.75;1.00;;;;;14.66;63.59;101317.97;5039771;28;46218;-81
2021/10/04 03:55:56;;;;;;;;;1.75;1.00;;;;;14.62;63.75;101310.13;5039116;28;45550;-81
2021/10/04 03:58:21;;;;;;;;;3.00;1.50;;;;;14.68;63.46;101326.69;5018391;28;45214;-81
2021/10/04 04:00:46;;;;;;;;;1.00;1.00;;;;;14.70;63.49;101335.41;5034227;28;45602;-82
2021/10/04 04:03:12;;;;;;;;;1.00;1.00;;;;;14.66;63.60;101339.13;5039851;28;46258;-82
2021/10/04 04:05:37;;;;;;;;;3.00;1.50;;;;;14.66;63.72;101336.47;5039110;28;45232;-83
2021/10/04 04:08:03;;;;;;;;;5.00;1.75;;;;;14.62;63.32;101343.66;5039925;28;45135;-82
2021/10/04 04:10:28;;;;;;;;;2.25;1.75;;;;;14.55;63.52;101344.84;5038525;28;45462;-82
2021/10/04 04:12:53;;;;;;;;;0.50;0.50;;;;;14.53;63.33;101350.19;5039727;28;45550;-85
2021/10/04 04:15:19;;;;;;;;;2.50;1.50;;;;;14.39;63.84;101340.19;5039336;28;45254;-82
2021/10/04 04:17:44;;;;;;;;;1.00;1.00;;;;;14.37;64.35;101337.56;5018003;28;45227;-80
2021/10/04 04:20:10;;;;;;;;;1.75;1.75;;;;;14.33;63.86;101333.34;5032695;28;45397;-80
2021/10/04 04:22:36;;;;;;;;;1.00;1.00;;;;;14.30;64.20;101338.75;5038924;28;45411;-87
2021/10/04 04:25:04;;;;;;;;;1.25;1.25;;;;;14.34;64.78;101340.38;5037577;28;45371;-83
2021/10/04 04:27:30;;;;;;;;;0.25;0.25;;;;;14.35;64.69;101342.06;5039569;28;45755;-78
2021/10/04 04:29:57;;;;;;;;;4.75;4.75;;;;;14.37;64.21;101350.78;5039411;28;45418;-79
2021/10/04 04:32:22;;;;;;;;;3.50;3.50;;;;;14.34;64.41;101344.78;5039219;28;45333;-77
2021/10/04 04:34:48;;;;;;;;;3.00;1.00;;;;;14.35;64.24;101352.66;5042969;28;45202;-79
2021/10/04 04:37:13;;;;;;;;;2.00;2.00;;;;;14.34;64.27;101350.94;5042292;28;45502;-78
2021/10/04 04:39:38;;;;;;;;;3.00;1.25;;;;;14.39;65.11;101361.34;5042305;28;45267;-77
2021/10/04 04:42:06;;;;;;;;;1.75;1.00;;;;;14.49;65.16;101360.03;5042427;28;45315;-77
2021/10/04 04:44:31;;;;;;;;;1.00;1.00;;;;;14.65;65.15;101363.84;5042521;28;45404;-77
2021/10/04 04:46:57;;;;;;;;;1.75;1.75;;;;;14.72;64.25;101362.66;5043000;28;45322;-76
2021/10/04 04:49:26;;;;;;;;;1.75;1.25;;;;;14.81;63.71;101369.41;5042766;28;45334;-76
2021/10/04 04:51:53;;;;;;;;;2.50;1.75;;;;;14.84;63.53;101375.41;5042475;28;46194;-76
2021/10/04 04:54:19;;;;;;;;;1.00;1.00;;;;;14.85;63.46;101369.22;5042566;28;45561;-76
2021/10/04 04:56:44;;;;;;;;;1.50;1.50;;;;;14.86;63.76;101367.44;5040741;28;45253;-76
2021/10/04 04:59:10;;;;;;;;;3.50;1.00;;;;;14.91;63.36;101369.91;5042916;28;45569;-78
2021/10/04 05:01:35;;;;;;;;;2.75;1.75;;;;;14.87;63.60;101365.66;5054234;28;45639;-78
2021/10/04 05:04:00;;;;;;;;;1.50;1.00;;;;;14.92;63.18;101371.59;5042441;28;45139;-77
2021/10/04 05:06:26;;;;;;;;;2.00;2.00;;;;;14.87;63.00;101368.28;5042538;28;45449;-77
2021/10/04 05:08:51;;;;;;;;;3.00;1.25;;;;;14.80;62.75;101372.94;5042266;28;45435;-78
2021/10/04 05:11:17;;;;;;;;;2.00;2.00;;;;;14.76;62.99;101384.59;5042304;28;46285;-79
2021/10/04 05:13:43;;;;;;;;;2.00;2.00;;;;;14.71;62.79;101379.50;5042148;28;45295;-80
2021/10/04 05:16:09;;;;;;;;;1.00;1.00;;;;;14.70;63.43;101394.50;5042651;28;45454;-80
2021/10/04 05:18:34;;;;;;;;;0.50;0.50;;;;;14.66;63.40;101392.03;5042156;28;45470;-84
2021/10/04 05:21:00;;;;;;;;;2.00;2.00;;;;;14.58;62.48;101394.97;5040412;28;45445;-83
2021/10/04 05:23:25;;;;;;;;;1.50;1.50;;;;;14.45;62.70;101386.66;5042239;28;45413;-85
2021/10/04 05:25:50;;;;;;;;;1.50;1.50;;;;;14.35;63.20;101379.09;5041758;28;45473;-87
2021/10/04 05:28:16;;;;;;;;;2.25;2.00;;;;;14.26;63.16;101392.66;5039903;28;45459;-83
2021/10/04 05:30:41;;;;;;;;;1.00;1.00;;;;;14.16;63.96;101389.50;5040299;28;45213;-81
2021/10/04 05:33:07;;;;;;;;;1.25;1.00;;;;;14.24;63.48;101387.44;5046750;28;45343;-80
2021/10/04 05:35:32;;;;;;;;;2.75;2.00;;;;;14.22;63.73;101393.72;5038503;28;45469;-84
2021/10/04 05:37:58;;;;;;;;;4.00;4.00;;;;;14.14;63.78;101386.06;5040759;28;45493;-81
2021/10/04 05:40:23;;;;;;;;;2.75;2.25;;;;;14.07;63.83;101390.72;5040213;28;45570;-81
2021/10/04 05:42:49;;;;;;;;;2.75;0.75;;;;;14.00;64.23;101383.94;5040447;28;45509;-80
2021/10/04 05:45:15;;;;;;;;;2.00;2.00;;;;;14.01;64.52;101393.59;5040338;28;45291;-81
2021/10/04 05:47:43;;;;;;;;;2.50;2.00;;;;;14.03;64.45;101391.75;5040701;28;45442;-79
2021/10/04 05:50:09;;;;;;;;;2.75;2.75;;;;;14.05;64.56;101395.22;5040430;28;45993;-79
2021/10/04 05:52:35;;;;;;;;;1.75;1.75;;;;;14.00;64.51;101390.06;5039833;28;45314;-79
2021/10/04 05:55:01;;;;;;;;;4.25;2.00;;;;;14.06;64.63;101400.44;5040510;28;45728;-79
2021/10/04 05:57:26;;;;;;;;;4.50;2.00;;;;;14.14;64.47;101404.56;5025378;28;46014;-79
2021/10/04 05:59:51;;;;;;;;;1.00;1.00;;;;;14.16;64.08;101400.09;5039724;28;46535;-79
2021/10/04 06:02:17;;;;;;;;;2.75;2.75;;;;;14.06;63.89;101402.22;5038936;28;45517;-79
2021/10/04 06:04:42;;;;;;;;;1.75;1.75;;;;;14.00;64.03;101405.09;5040880;28;45391;-79
2021/10/04 06:07:08;;;;;;;;;1.50;1.50;;;;;13.89;63.98;101408.13;5040446;28;45237;-80
2021/10/04 06:09:33;;;;;;;;;1.00;1.00;;;;;13.76;64.51;101412.97;5035426;28;45426;-79
2021/10/04 06:11:58;;;;;;;;;2.25;2.00;;;;;13.67;64.70;101415.03;5039181;28;45842;-79
2021/10/04 06:14:24;;;;;;;;;3.00;2.00;;;;;13.67;65.23;101420.31;5036023;28;45560;-79
2021/10/04 06:16:50;;;;;;;;;8.75;8.00;;;;;13.66;64.71;101408.03;5040186;28;45247;-80
2021/10/04 06:19:15;;;;;;;;;8.00;5.00;;;;;13.76;65.12;101426.19;5030800;28;46366;-79
2021/10/04 06:21:41;;;;;;;;;9.50;4.00;;;;;13.80;64.61;101430.47;5035736;28;45507;-80
2021/10/04 06:24:06;;;;;;;;;4.00;3.75;;;;;13.79;64.83;101426.94;5040453;28;45427;-79
2021/10/04 06:26:32;;;;;;;;;9.25;5.00;;;;;13.81;65.05;101416.31;5034545;28;45470;-79
2021/10/04 06:28:57;;;;;;;;;3.25;3.00;;;;;13.90;65.44;101421.25;5041186;28;46121;-79
2021/10/04 06:31:25;;;;;;;;;1.75;1.75;;;;;14.01;65.44;101428.81;5041030;28;45587;-79
2021/10/04 06:33:51;;;;;;;;;3.00;1.75;;;;;14.21;65.31;101434.28;5038846;28;45303;-79
2021/10/04 06:36:16;;;;;;;;;2.00;1.00;;;;;14.41;64.74;101444.13;5039956;28;45379;-79
2021/10/04 06:38:41;;;;;;;;;3.00;1.00;;;;;14.51;64.53;101442.84;5039763;28;45260;-79
2021/10/04 06:41:07;;;;;;;;;3.00;3.00;;;;;14.59;64.03;101455.75;5040631;28;45278;-79
2021/10/04 06:43:32;;;;;;;;;4.00;2.25;;;;;14.60;63.56;101449.56;5021313;28;45524;-79
2021/10/04 06:45:57;;;;;;;;;1.75;1.75;;;;;14.57;63.52;101454.94;5040049;28;45197;-79
2021/10/04 06:48:23;;;;;;;;;4.00;4.00;;;;;14.53;63.70;101450.72;5039936;28;45472;-79
2021/10/04 06:50:48;;;;;;;;;2.25;2.25;;;;;14.52;63.96;101448.97;5040832;28;45386;-79
2021/10/04 06:53:14;;;;;;;;;4.00;2.00;;;;;14.62;63.94;101458.28;5041083;28;45300;-79
2021/10/04 06:55:39;;;;;;;;;2.00;2.00;;;;;14.62;63.99;101453.00;5022224;28;45747;-79
2021/10/04 06:58:05;;;;;;;;;1.00;1.00;;;;;14.70;63.63;101457.13;5040006;28;46212;-79
2021/10/04 07:00:30;;;;;;;;;1.75;1.75;;;;;14.82;63.41;101467.22;5013093;28;45404;-79
2021/10/04 07:02:56;;;;;;;;;1.75;1.75;;;;;14.88;62.93;101460.88;5040380;28;45221;-79
2021/10/04 07:05:22;;;;;;;;;3.75;1.50;;;;;14.99;62.90;101471.03;5040586;28;45318;-79
2021/10/04 07:07:49;;;;;;;;;2.25;2.25;;;;;15.00;62.95;101461.31;5040179;28;45820;-79
2021/10/04 07:10:16;;;;;;;;;2.25;1.50;;;;;15.08;62.92;101461.88;5039568;28;45689;-79
2021/10/04 07:12:41;;;;;;;;;1.25;1.25;;;;;15.13;62.84;101459.03;5040389;28;45735;-79
2021/10/04 07:15:08;;;;;;;;;1.00;1.00;;;;;15.20;62.63;101476.38;5039539;28;45339;-79
2021/10/04 07:17:34;;;;;;;;;2.00;2.00;;;;;15.26;62.29;101465.53;5033377;28;45313;-79
2021/10/04 07:19:59;;;;;;;;;2.75;2.00;;;;;15.34;62.29;101474.94;5040709;28;45223;-79
2021/10/04 07:22:25;;;;;;;;;3.25;1.00;;;;;15.41;61.77;101479.06;5019405;28;46546;-79
2021/10/04 07:24:50;;;;;;;;;1.50;1.50;;;;;15.34;61.57;101474.94;5034840;28;45404;-79
2021/10/04 07:27:17;;;;;;;;;1.00;1.00;;;;;15.42;61.50;101491.38;5037495;28;45411;-79
2021/10/04 07:29:43;;;;;;;;;4.25;3.00;;;;;15.44;61.16;101492.19;5033554;28;45612;-79
2021/10/04 07:32:08;;;;;;;;;1.00;1.00;;;;;15.40;61.52;101480.88;5032464;28;45388;-79
2021/10/04 07:34:34;;;;;;;;;3.00;0.25;;;;;15.46;61.45;101489.50;5036104;28;45584;-79
2021/10/04 07:37:01;;;;;;;;;1.00;1.00;;;;;15.50;61.01;101489.28;5038343;28;45340;-79
2021/10/04 07:39:26;;;;;;;;;1.25;1.25;;;;;15.48;61.36;101475.22;5039083;28;45758;-79
2021/10/04 07:41:58;;;;;;;;;4.00;2.75;;;;;15.47;61.14;101473.50;5038143;28;45328;-79
2021/10/04 07:44:26;;;;;;;;;1.50;1.50;;;;;15.50;61.16;101473.41;5038736;28;45431;-79
2021/10/04 07:46:53;;;;;;;;;1.25;1.00;;;;;15.55;60.78;101482.94;5039486;28;45718;-79
2021/10/04 07:49:19;;;;;;;;;1.00;1.00;;;;;15.61;60.88;101483.53;5036746;28;45242;-80
2021/10/04 07:51:45;;;;;;;;;1.00;1.00;;;;;15.56;60.96;101482.84;5037444;28;45305;-79
2021/10/04 07:54:10;;;;;;;;;2.00;1.00;;;;;15.59;61.19;101489.81;5034207;28;45312;-79
2021/10/04 07:56:39;;;;;;;;;2.25;1.00;;;;;15.57;60.66;101494.31;5037094;28;45379;-79
2021/10/04 07:59:07;;;;;;;;;1.75;1.00;;;;;15.53;60.82;101483.00;5037761;28;45643;-79
2021/10/04 08:01:33;;;;;;;;;2.25;1.25;;;;;15.52;61.01;101489.22;5038470;28;45317;-79
2021/10/04 08:03:58;;;;;;;;;2.50;1.00;;;;;15.55;60.88;101496.16;5038237;28;45557;-79
2021/10/04 08:06:26;;;;;;;;;1.00;1.00;;;;;15.56;60.86;101504.03;5038221;28;46662;-79
2021/10/04 08:08:51;;;;;;;;;1.00;1.00;;;;;15.57;61.04;101512.88;5008340;28;45524;-79
2021/10/04 08:11:17;;;;;;;;;2.00;1.00;;;;;15.58;60.99;101510.13;5036701;28;45467;-79
2021/10/04 08:13:45;;;;;;;;;1.50;1.50;;;;;15.61;60.87;101510.00;5038089;28;45430;-79
2021/10/04 08:16:11;;;;;;;;;1.00;1.00;;;;;15.67;60.43;101518.63;5038428;28;45463;-79
2021/10/04 08:18:36;;;;;;;;;2.00;1.00;;;;;15.60;61.35;101502.16;5039120;28;45420;-79
2021/10/04 08:21:02;;;;;;;;;2.00;0.50;;;;;15.56;61.01;101504.03;5037642;28;45540;-79
2021/10/04 08:23:27;;;;;;;;;1.00;1.00;;;;;15.49;60.89;101514.03;5038171;28;45303;-79
2021/10/04 08:25:52;;;;;;;;;2.50;1.25;;;;;15.47;61.33;101504.44;5027011;28;45413;-79
2021/10/04 08:28:18;;;;;;;;;1.00;0.50;;;;;15.44;61.54;101492.19;5031880;28;45615;-79
2021/10/04 08:30:43;;;;;;;;;1.00;1.00;;;;;15.52;61.44;101503.31;5024250;28;45467;-79
2021/10/04 08:33:08;;;;;;;;;2.25;2.00;;;;;15.57;61.50;101502.25;5037685;28;45292;-79
2021/10/04 08:35:34;;;;;;;;;2.00;2.00;;;;;15.58;61.46;101488.94;5037991;28;46368;-79
2021/10/04 08:37:59;;;;;;;;;2.00;2.00;;;;;15.69;61.46;101504.41;5038122;28;45297;-79
2021/10/04 08:40:25;;;;;;;;;1.00;1.00;;;;;15.71;61.57;101512.28;5038752;28;45351;-79
2021/10/04 08:42:50;;;;;;;;;1.50;1.00;;;;;15.70;60.99;101500.84;5030578;28;45346;-79
2021/10/04 08:45:15;;;;;;;;;4.00;1.75;;;;;15.73;61.09;101497.16;5037902;28;46258;-79
2021/10/04 08:47:41;;;;;;;;;0.00;0.00;;;;;15.82;61.33;101490.63;5037725;28;45331;-79
2021/10/04 08:50:13;;;;;;;;;1.75;1.00;;;;;15.83;61.07;101497.63;5019662;28;45412;-79
2021/10/04 08:52:39;;;;;;;;;1.00;1.00;;;;;15.86;61.00;101501.03;5036893;28;45347;-79
2021/10/04 08:55:05;;;;;;;;;2.00;2.00;;;;;15.90;61.03;101485.81;5037331;28;46504;-79
2021/10/04 08:57:30;;;;;;;;;1.00;1.00;;;;;15.92;61.30;101499.91;5033045;28;45574;-79
2021/10/04 08:59:56;;;;;;;;;4.50;1.50;;;;;15.98;60.98;101504.06;5036436;28;45182;-79
2021/10/04 09:02:24;;;;;;;;;1.50;1.00;;;;;16.01;60.96;101503.06;5019256;28;46830;-79
2021/10/04 09:05:08;;;;;;;;;2.50;1.25;;;;;16.03;61.56;101498.53;5035282;28;46547;-79
2021/10/04 09:07:53;;;;;;;;;0.50;0.50;;;;;16.01;61.10;101495.97;5010930;28;45792;-79
2021/10/04 09:10:22;;;;;;;;;1.50;1.25;;;;;16.03;61.50;101498.53;5031436;28;45477;-79
2021/10/04 09:13:00;;;;;;;;;0.50;0.50;;;;;16.00;61.50;101502.19;5037427;28;45285;-79
2021/10/04 09:15:33;;;;;;;;;1.00;1.00;;;;;16.01;61.19;101495.09;5036828;28;46377;-79
2021/10/04 09:18:06;;;;;;;;;1.00;1.00;;;;;16.04;61.65;101500.28;5037930;28;45317;-79
2021/10/04 09:20:49;;;;;;;;;1.25;1.00;;;;;16.04;61.54;101503.84;5041636;28;45458;-79
2021/10/04 09:23:27;;;;;;;;;1.00;1.00;;;;;16.04;61.79;101501.19;5026907;28;45523;-78
2021/10/04 09:25:52;;;;;;;;;2.00;0.25;;;;;16.04;61.82;101485.28;5040510;28;45597;-79
2021/10/04 09:28:29;;;;;;;;;3.00;0.50;;;;;16.10;61.99;101494.72;5042034;28;45332;-79
2021/10/04 09:31:18;;;;;;;;;4.00;1.00;;;;;16.12;61.71;101497.34;5042229;28;45325;-79
2021/10/04 09:33:58;;;;;;;;;2.00;2.00;;;;;16.15;61.93;101495.38;5028259;28;45474;-78
2021/10/04 09:36:23;;;;;;;;;1.00;1.00;;;;;16.20;61.78;101500.47;5031675;28;46575;-78
2021/10/04 09:39:13;;;;;;;;;3.00;0.25;;;;;16.22;61.95;101496.00;5023707;28;45250;-78
2021/10/04 09:42:10;;;;;;;;;0.75;0.75;;;;;16.24;61.75;101493.25;5039779;28;45410;-78
2021/10/04 09:44:55;;;;;;;;;1.00;1.00;;;;;16.29;62.31;101491.28;5034583;28;45677;-78
2021/10/04 09:47:25;;;;;;;;;0.00;0.00;;;;;16.31;62.08;101492.91;5041546;28;45389;-79
2021/10/04 09:49:58;;;;;;;;;2.00;1.00;;;;;16.31;62.20;101497.38;5039001;28;45477;-78
2021/10/04 09:52:34;;;;;;;;;1.00;1.00;;;;;16.32;62.08;101491.13;5041681;28;45352;-78
2021/10/04 09:54:59;;;;;;;;;1.00;1.00;;;;;16.34;62.48;101486.63;5023660;28;46466;-78
2021/10/04 09:57:26;;;;;;;;;1.00;1.00;;;;;16.35;62.32;101488.31;5041215;28;45386;-78
2021/10/04 09:59:51;;;;;;;;;0.50;0.50;;;;;16.39;62.28;101491.72;5023604;28;45393;-79
2021/10/04 10:02:18;;;;;;;;;2.00;0.50;;;;;16.39;62.30;101481.09;5023339;28;45359;-79
2021/10/04 10:04:47;;;;;;;;;1.25;1.00;;;;;16.47;62.03;101489.53;5040459;28;45522;-78
2021/10/04 10:07:13;;;;;;;;;0.50;0.00;;;;;16.51;62.48;101488.50;5035984;28;45398;-78
2021/10/04 10:09:40;;;;;;;;;2.75;1.00;;;;;16.51;62.03;101490.28;5033809;28;45534;-78
2021/10/04 10:12:08;;;;;;;;;1.00;0.25;;;;;16.53;62.19;101478.66;5034224;28;45513;-78
2021/10/04 10:14:45;;;;;;;;;0.75;0.75;;;;;16.57;62.34;101484.69;5012198;28;46300;-79
2021/10/04 10:17:28;;;;;;;;;2.50;1.00;;;;;16.58;62.77;101494.38;5044858;28;46365;-79
2021/10/04 10:19:56;;;;;;;;;2.50;2.00;;;;;16.62;62.40;101487.97;5041556;28;45470;-79
2021/10/04 10:22:24;;;;;;;;;1.00;1.00;;;;;16.64;62.30;101483.44;5040787;28;45260;-79
2021/10/04 10:24:50;;;;;;;;;0.50;0.00;;;;;16.68;62.52;101480.66;5017432;28;46367;-79
2021/10/04 10:27:15;;;;;;;;;1.00;0.00;;;;;16.73;62.05;101478.66;5041167;28;45433;-79
2021/10/04 10:29:42;;;;;;;;;0.00;0.00;;;;;16.75;62.31;101474.13;5040820;28;45245;-79
2021/10/04 10:32:17;;;;;;;;;3.50;0.00;;;;;16.77;62.55;101480.22;5021863;28;45472;-79
2021/10/04 10:34:45;;;;;;;;;1.00;0.00;;;;;16.83;62.27;101485.25;5040994;28;46203;-79
2021/10/04 10:37:28;;;;;;;;;1.50;0.00;;;;;16.83;62.34;101477.28;5021282;28;47586;-79
2021/10/04 10:39:55;;;;;;;;;2.25;1.25;;;;;16.89;62.37;101485.91;5040628;28;45523;-79
2021/10/04 10:42:28;;;;;;;;;1.00;0.25;;;;;16.91;62.15;101476.06;5033037;28;45288;-79
2021/10/04 10:44:56;;;;;;;;;0.50;0.50;;;;;16.99;61.95;101487.16;5032950;28;45389;-79
2021/10/04 10:47:37;;;;;;;;;2.25;1.00;;;;;17.02;62.07;101489.66;5039565;28;46408;-78
2021/10/04 10:50:11;;;;;;;;;0.75;0.25;;;;;17.07;62.05;101492.97;5040879;28;45622;-78
2021/10/04 10:52:49;;;;;;;;;1.00;0.00;;;;;17.05;62.05;101478.91;5039370;28;45460;-79
2021/10/04 10:55:20;;;;;;;;;0.75;0.25;;;;;17.11;61.97;101483.06;5040706;28;45705;-79
2021/10/04 10:57:52;;;;;;;;;3.00;1.50;;;;;17.14;61.43;101492.66;5034691;28;45402;-79
2021/10/04 11:00:26;;;;;;;;;2.50;1.00;;;;;17.13;61.75;101490.94;5027830;28;45479;-79
2021/10/04 11:02:59;;;;;;;;;0.00;0.00;;;;;17.14;61.65;101487.34;5041108;28;45225;-79
2021/10/04 11:05:43;;;;;;;;;2.00;1.00;;;;;17.14;62.26;101482.03;5022720;28;47125;-79
2021/10/04 11:08:43;;;;;;;;;0.00;0.00;;;;;17.18;61.29;101483.66;5040164;28;45433;-79
2021/10/04 11:11:15;;;;;;;;;2.50;1.25;;;;;17.17;61.32;101480.13;5035997;28;45525;-80
2021/10/04 11:13:55;;;;;;;;;2.50;0.00;;;;;17.25;61.79;101477.09;5038873;28;45403;-79
2021/10/04 11:16:24;;;;;;;;;0.00;0.00;;;;;17.36;60.96;101473.03;5039029;28;45225;-79
2021/10/04 11:18:50;;;;;;;;;2.00;2.00;;;;;17.40;60.64;101479.91;5040767;28;46807;-79
2021/10/04 11:21:21;;;;;;;;;0.50;0.50;;;;;17.31;61.15;101466.16;5032519;28;45515;-79
2021/10/04 11:23:49;;;;;;;;;0.00;0.00;;;;;17.28;61.28;101466.31;5039758;28;45608;-79
2021/10/04 11:26:20;;;;;;;;;0.00;0.00;;;;;17.32;61.29;101465.22;5016428;28;46220;-79